sensor_id;sensor_type;location;lat;lon;timestamp;pressure;altitude;pressure_sealevel;temperature
12854;BMP180;6495;51.808;7.478;2023-04-29T00:00:07;100731.00;;;13.40
12854;BMP180;6495;51.808;7.478;2023-04-29T00:02:40;100724.00;;;13.40
12854;BMP180;6495;51.808;7.478;2023-04-29T00:05:09;100735.00;;;13.40
12854;BMP180;6495;51.808;7.478;2023-04-29T00:07:37;100727.00;;;13.40
12854;BMP180;6495;51.808;7.478;2023-04-29T00:10:07;100730.00;;;13.50
12854;BMP180;6495;51.808;7.478;2023-04-29T00:12:35;100731.00;;;13.50
12854;BMP180;6495;51.808;7.478;2023-04-29T00:15:04;100735.00;;;13.50
12854;BMP180;6495;51.808;7.478;2023-04-29T00:17:33;100732.00;;;13.50
12854;BMP180;6495;51.808;7.478;2023-04-29T00:20:04;100732.00;;;13.40
12854;BMP180;6495;51.808;7.478;2023-04-29T00:22:32;100730.00;;;13.30
12854;BMP180;6495;51.808;7.478;2023-04-29T00:25:00;100734.00;;;13.30
12854;BMP180;6495;51.808;7.478;2023-04-29T00:27:30;100740.00;;;13.30
12854;BMP180;6495;51.808;7.478;2023-04-29T00:29:58;100738.00;;;13.20
12854;BMP180;6495;51.808;7.478;2023-04-29T00:32:26;100747.00;;;13.20
12854;BMP180;6495;51.808;7.478;2023-04-29T00:34:55;100742.00;;;13.20
12854;BMP180;6495;51.808;7.478;2023-04-29T00:37:24;100745.00;;;13.20
12854;BMP180;6495;51.808;7.478;2023-04-29T00:39:52;100755.00;;;13.20
12854;BMP180;6495;51.808;7.478;2023-04-29T00:42:20;100761.00;;;13.20
12854;BMP180;6495;51.808;7.478;2023-04-29T00:44:49;100768.00;;;13.10
12854;BMP180;6495;51.808;7.478;2023-04-29T00:47:17;100760.00;;;12.90
12854;BMP180;6495;51.808;7.478;2023-04-29T00:49:45;100767.00;;;12.90
12854;BMP180;6495;51.808;7.478;2023-04-29T00:52:14;100767.00;;;12.90
12854;BMP180;6495;51.808;7.478;2023-04-29T00:54:45;100768.00;;;12.80
12854;BMP180;6495;51.808;7.478;2023-04-29T00:57:13;100769.00;;;12.80
12854;BMP180;6495;51.808;7.478;2023-04-29T00:59:42;100774.00;;;12.80
12854;BMP180;6495;51.808;7.478;2023-04-29T01:02:12;100781.00;;;12.80
12854;BMP180;6495;51.808;7.478;2023-04-29T01:04:40;100779.00;;;12.80
12854;BMP180;6495;51.808;7.478;2023-04-29T01:07:14;100782.00;;;12.80
12854;BMP180;6495;51.808;7.478;2023-04-29T01:10:00;100781.00;;;12.80
12854;BMP180;6495;51.808;7.478;2023-04-29T01:12:38;100794.00;;;12.70
12854;BMP180;6495;51.808;7.478;2023-04-29T01:15:20;100802.00;;;12.70
12854;BMP180;6495;51.808;7.478;2023-04-29T01:17:59;100798.00;;;12.70
12854;BMP180;6495;51.808;7.478;2023-04-29T01:20:29;100789.00;;;12.70
12854;BMP180;6495;51.808;7.478;2023-04-29T01:22:58;100800.00;;;12.70
12854;BMP180;6495;51.808;7.478;2023-04-29T01:25:29;100798.00;;;12.60
12854;BMP180;6495;51.808;7.478;2023-04-29T01:28:21;100804.00;;;12.60
12854;BMP180;6495;51.808;7.478;2023-04-29T01:30:59;100807.00;;;12.50
12854;BMP180;6495;51.808;7.478;2023-04-29T01:33:40;100810.00;;;12.50
12854;BMP180;6495;51.808;7.478;2023-04-29T01:36:22;100812.00;;;12.40
12854;BMP180;6495;51.808;7.478;2023-04-29T01:39:06;100824.00;;;12.40
12854;BMP180;6495;51.808;7.478;2023-04-29T01:41:45;100823.00;;;12.40
12854;BMP180;6495;51.808;7.478;2023-04-29T01:44:27;100822.00;;;12.30
12854;BMP180;6495;51.808;7.478;2023-04-29T01:46:59;100830.00;;;12.20
12854;BMP180;6495;51.808;7.478;2023-04-29T01:49:35;100828.00;;;12.20
12854;BMP180;6495;51.808;7.478;2023-04-29T01:52:04;100829.00;;;12.20
12854;BMP180;6495;51.808;7.478;2023-04-29T01:54:33;100833.00;;;12.20
12854;BMP180;6495;51.808;7.478;2023-04-29T01:57:03;100833.00;;;12.10
12854;BMP180;6495;51.808;7.478;2023-04-29T01:59:46;100832.00;;;12.20
12854;BMP180;6495;51.808;7.478;2023-04-29T02:02:37;100836.00;;;12.20
12854;BMP180;6495;51.808;7.478;2023-04-29T02:05:31;100843.00;;;12.20
12854;BMP180;6495;51.808;7.478;2023-04-29T02:08:01;100843.00;;;12.10
12854;BMP180;6495;51.808;7.478;2023-04-29T02:10:32;100844.00;;;12.10
12854;BMP180;6495;51.808;7.478;2023-04-29T02:13:12;100849.00;;;12.10
12854;BMP180;6495;51.808;7.478;2023-04-29T02:15:42;100839.00;;;12.10
12854;BMP180;6495;51.808;7.478;2023-04-29T02:18:10;100837.00;;;12.10
12854;BMP180;6495;51.808;7.478;2023-04-29T02:20:39;100837.00;;;12.10
12854;BMP180;6495;51.808;7.478;2023-04-29T02:23:08;100849.00;;;12.10
12854;BMP180;6495;51.808;7.478;2023-04-29T02:25:36;100849.00;;;12.10
12854;BMP180;6495;51.808;7.478;2023-04-29T02:28:04;100854.00;;;12.10
12854;BMP180;6495;51.808;7.478;2023-04-29T02:30:34;100852.00;;;12.10
12854;BMP180;6495;51.808;7.478;2023-04-29T02:33:03;100855.00;;;12.10
12854;BMP180;6495;51.808;7.478;2023-04-29T02:35:34;100861.00;;;12.10
12854;BMP180;6495;51.808;7.478;2023-04-29T02:38:03;100859.00;;;12.10
12854;BMP180;6495;51.808;7.478;2023-04-29T02:40:31;100859.00;;;12.10
12854;BMP180;6495;51.808;7.478;2023-04-29T02:42:59;100861.00;;;12.10
12854;BMP180;6495;51.808;7.478;2023-04-29T02:45:28;100860.00;;;12.10
12854;BMP180;6495;51.808;7.478;2023-04-29T02:47:57;100869.00;;;12.10
12854;BMP180;6495;51.808;7.478;2023-04-29T02:50:26;100865.00;;;12.10
12854;BMP180;6495;51.808;7.478;2023-04-29T02:52:54;100872.00;;;12.00
12854;BMP180;6495;51.808;7.478;2023-04-29T02:55:23;100869.00;;;12.00
12854;BMP180;6495;51.808;7.478;2023-04-29T02:57:55;100877.00;;;11.90
12854;BMP180;6495;51.808;7.478;2023-04-29T03:00:23;100887.00;;;11.90
12854;BMP180;6495;51.808;7.478;2023-04-29T03:02:51;100874.00;;;11.90
12854;BMP180;6495;51.808;7.478;2023-04-29T03:05:21;100876.00;;;11.90
12854;BMP180;6495;51.808;7.478;2023-04-29T03:07:50;100872.00;;;11.80
12854;BMP180;6495;51.808;7.478;2023-04-29T03:10:18;100874.00;;;11.80
12854;BMP180;6495;51.808;7.478;2023-04-29T03:12:46;100879.00;;;11.80
12854;BMP180;6495;51.808;7.478;2023-04-29T03:15:15;100885.00;;;11.80
12854;BMP180;6495;51.808;7.478;2023-04-29T03:17:44;100882.00;;;11.80
12854;BMP180;6495;51.808;7.478;2023-04-29T03:20:13;100892.00;;;11.80
12854;BMP180;6495;51.808;7.478;2023-04-29T03:22:42;100892.00;;;11.80
12854;BMP180;6495;51.808;7.478;2023-04-29T03:25:10;100893.00;;;11.70
12854;BMP180;6495;51.808;7.478;2023-04-29T03:27:39;100897.00;;;11.70
12854;BMP180;6495;51.808;7.478;2023-04-29T03:30:09;100895.00;;;11.70
12854;BMP180;6495;51.808;7.478;2023-04-29T03:32:44;100897.00;;;11.70
12854;BMP180;6495;51.808;7.478;2023-04-29T03:35:12;100899.00;;;11.80
12854;BMP180;6495;51.808;7.478;2023-04-29T03:38:09;100900.00;;;11.80
12854;BMP180;6495;51.808;7.478;2023-04-29T03:40:38;100900.00;;;11.70
12854;BMP180;6495;51.808;7.478;2023-04-29T03:43:07;100904.00;;;11.70
12854;BMP180;6495;51.808;7.478;2023-04-29T03:45:35;100905.00;;;11.70
12854;BMP180;6495;51.808;7.478;2023-04-29T03:48:05;100913.00;;;11.70
12854;BMP180;6495;51.808;7.478;2023-04-29T03:50:34;100905.00;;;11.70
12854;BMP180;6495;51.808;7.478;2023-04-29T03:53:03;100914.00;;;11.70
12854;BMP180;6495;51.808;7.478;2023-04-29T03:55:33;100910.00;;;11.60
12854;BMP180;6495;51.808;7.478;2023-04-29T03:58:02;100909.00;;;11.60
12854;BMP180;6495;51.808;7.478;2023-04-29T04:00:30;100923.00;;;11.70
12854;BMP180;6495;51.808;7.478;2023-04-29T04:03:02;100921.00;;;11.70
12854;BMP180;6495;51.808;7.478;2023-04-29T04:05:33;100917.00;;;11.70
12854;BMP180;6495;51.808;7.478;2023-04-29T04:08:07;100930.00;;;11.70
12854;BMP180;6495;51.808;7.478;2023-04-29T04:10:41;100924.00;;;11.70
12854;BMP180;6495;51.808;7.478;2023-04-29T04:13:21;100937.00;;;11.70
12854;BMP180;6495;51.808;7.478;2023-04-29T04:15:49;100938.00;;;11.70
12854;BMP180;6495;51.808;7.478;2023-04-29T04:18:18;100947.00;;;11.70
12854;BMP180;6495;51.808;7.478;2023-04-29T04:20:46;100946.00;;;11.70
12854;BMP180;6495;51.808;7.478;2023-04-29T04:23:14;100946.00;;;11.70
12854;BMP180;6495;51.808;7.478;2023-04-29T04:25:46;100951.00;;;11.70
12854;BMP180;6495;51.808;7.478;2023-04-29T04:28:33;100959.00;;;11.80
12854;BMP180;6495;51.808;7.478;2023-04-29T04:31:06;100953.00;;;11.70
12854;BMP180;6495;51.808;7.478;2023-04-29T04:33:35;100955.00;;;11.70
12854;BMP180;6495;51.808;7.478;2023-04-29T04:36:04;100966.00;;;11.70
12854;BMP180;6495;51.808;7.478;2023-04-29T04:38:32;100967.00;;;11.70
12854;BMP180;6495;51.808;7.478;2023-04-29T04:41:07;100964.00;;;11.70
12854;BMP180;6495;51.808;7.478;2023-04-29T04:43:37;100969.00;;;11.70
12854;BMP180;6495;51.808;7.478;2023-04-29T04:46:14;100971.00;;;11.70
12854;BMP180;6495;51.808;7.478;2023-04-29T04:48:59;100978.00;;;11.70
12854;BMP180;6495;51.808;7.478;2023-04-29T04:51:28;100977.00;;;11.70
12854;BMP180;6495;51.808;7.478;2023-04-29T04:53:57;100978.00;;;11.70
12854;BMP180;6495;51.808;7.478;2023-04-29T04:56:29;100987.00;;;11.70
12854;BMP180;6495;51.808;7.478;2023-04-29T04:58:57;100991.00;;;11.70
12854;BMP180;6495;51.808;7.478;2023-04-29T05:01:25;100995.00;;;11.60
12854;BMP180;6495;51.808;7.478;2023-04-29T05:03:54;100997.00;;;11.60
12854;BMP180;6495;51.808;7.478;2023-04-29T05:06:23;101000.00;;;11.60
12854;BMP180;6495;51.808;7.478;2023-04-29T05:08:51;100994.00;;;11.50
12854;BMP180;6495;51.808;7.478;2023-04-29T05:11:21;101005.00;;;11.50
12854;BMP180;6495;51.808;7.478;2023-04-29T05:14:05;101007.00;;;11.50
12854;BMP180;6495;51.808;7.478;2023-04-29T05:16:33;101011.00;;;11.50
12854;BMP180;6495;51.808;7.478;2023-04-29T05:19:01;101007.00;;;11.40
12854;BMP180;6495;51.808;7.478;2023-04-29T05:21:34;101005.00;;;11.40
12854;BMP180;6495;51.808;7.478;2023-04-29T05:24:02;100999.00;;;11.30
12854;BMP180;6495;51.808;7.478;2023-04-29T05:26:31;101005.00;;;11.30
12854;BMP180;6495;51.808;7.478;2023-04-29T05:29:00;101011.00;;;11.30
12854;BMP180;6495;51.808;7.478;2023-04-29T05:31:36;101023.00;;;11.30
12854;BMP180;6495;51.808;7.478;2023-04-29T05:34:04;101010.00;;;11.30
12854;BMP180;6495;51.808;7.478;2023-04-29T05:36:33;101020.00;;;11.20
12854;BMP180;6495;51.808;7.478;2023-04-29T05:39:01;101018.00;;;11.20
12854;BMP180;6495;51.808;7.478;2023-04-29T05:41:30;101027.00;;;11.20
12854;BMP180;6495;51.808;7.478;2023-04-29T05:44:11;101032.00;;;11.20
12854;BMP180;6495;51.808;7.478;2023-04-29T05:46:41;101032.00;;;11.20
12854;BMP180;6495;51.808;7.478;2023-04-29T05:49:09;101039.00;;;11.30
12854;BMP180;6495;51.808;7.478;2023-04-29T05:51:37;101044.00;;;11.30
12854;BMP180;6495;51.808;7.478;2023-04-29T05:54:06;101048.00;;;11.30
12854;BMP180;6495;51.808;7.478;2023-04-29T05:56:34;101052.00;;;11.30
12854;BMP180;6495;51.808;7.478;2023-04-29T05:59:02;101052.00;;;11.30
12854;BMP180;6495;51.808;7.478;2023-04-29T06:01:30;101052.00;;;11.30
12854;BMP180;6495;51.808;7.478;2023-04-29T06:04:00;101055.00;;;11.20
12854;BMP180;6495;51.808;7.478;2023-04-29T06:06:36;101056.00;;;11.20
12854;BMP180;6495;51.808;7.478;2023-04-29T06:09:17;101062.00;;;11.20
12854;BMP180;6495;51.808;7.478;2023-04-29T06:11:56;101070.00;;;11.20
12854;BMP180;6495;51.808;7.478;2023-04-29T06:14:24;101076.00;;;11.20
12854;BMP180;6495;51.808;7.478;2023-04-29T06:16:52;101077.00;;;11.20
12854;BMP180;6495;51.808;7.478;2023-04-29T06:19:22;101082.00;;;11.20
12854;BMP180;6495;51.808;7.478;2023-04-29T06:21:52;101084.00;;;11.20
12854;BMP180;6495;51.808;7.478;2023-04-29T06:24:20;101088.00;;;11.20
12854;BMP180;6495;51.808;7.478;2023-04-29T06:26:49;101083.00;;;11.20
12854;BMP180;6495;51.808;7.478;2023-04-29T06:29:18;101088.00;;;11.10
12854;BMP180;6495;51.808;7.478;2023-04-29T06:31:48;101090.00;;;11.10
12854;BMP180;6495;51.808;7.478;2023-04-29T06:34:23;101107.00;;;11.10
12854;BMP180;6495;51.808;7.478;2023-04-29T06:37:22;101110.00;;;11.10
12854;BMP180;6495;51.808;7.478;2023-04-29T06:40:08;101102.00;;;11.20
12854;BMP180;6495;51.808;7.478;2023-04-29T06:42:57;101111.00;;;11.20
12854;BMP180;6495;51.808;7.478;2023-04-29T06:45:48;101109.00;;;11.10
12854;BMP180;6495;51.808;7.478;2023-04-29T06:48:22;101118.00;;;11.10
12854;BMP180;6495;51.808;7.478;2023-04-29T06:50:54;101122.00;;;11.10
12854;BMP180;6495;51.808;7.478;2023-04-29T06:53:23;101124.00;;;11.10
12854;BMP180;6495;51.808;7.478;2023-04-29T06:56:12;101130.00;;;11.10
12854;BMP180;6495;51.808;7.478;2023-04-29T06:58:58;101144.00;;;11.10
12854;BMP180;6495;51.808;7.478;2023-04-29T07:01:45;101142.00;;;11.10
12854;BMP180;6495;51.808;7.478;2023-04-29T07:04:19;101138.00;;;11.00
12854;BMP180;6495;51.808;7.478;2023-04-29T07:06:50;101151.00;;;11.00
12854;BMP180;6495;51.808;7.478;2023-04-29T07:09:19;101154.00;;;11.00
12854;BMP180;6495;51.808;7.478;2023-04-29T07:11:49;101156.00;;;11.00
12854;BMP180;6495;51.808;7.478;2023-04-29T07:14:19;101164.00;;;11.00
12854;BMP180;6495;51.808;7.478;2023-04-29T07:16:52;101171.00;;;11.00
12854;BMP180;6495;51.808;7.478;2023-04-29T07:19:21;101166.00;;;11.10
12854;BMP180;6495;51.808;7.478;2023-04-29T07:22:00;101172.00;;;11.10
12854;BMP180;6495;51.808;7.478;2023-04-29T07:24:28;101181.00;;;11.10
12854;BMP180;6495;51.808;7.478;2023-04-29T07:26:57;101177.00;;;11.10
12854;BMP180;6495;51.808;7.478;2023-04-29T07:29:25;101178.00;;;11.10
12854;BMP180;6495;51.808;7.478;2023-04-29T07:31:53;101176.00;;;11.20
12854;BMP180;6495;51.808;7.478;2023-04-29T07:34:22;101185.00;;;11.20
12854;BMP180;6495;51.808;7.478;2023-04-29T07:36:51;101192.00;;;11.20
12854;BMP180;6495;51.808;7.478;2023-04-29T07:39:21;101188.00;;;11.20
12854;BMP180;6495;51.808;7.478;2023-04-29T07:41:55;101196.00;;;11.20
12854;BMP180;6495;51.808;7.478;2023-04-29T07:44:23;101200.00;;;11.30
12854;BMP180;6495;51.808;7.478;2023-04-29T07:46:51;101210.00;;;11.30
12854;BMP180;6495;51.808;7.478;2023-04-29T07:49:19;101211.00;;;11.30
12854;BMP180;6495;51.808;7.478;2023-04-29T07:51:47;101217.00;;;11.30
12854;BMP180;6495;51.808;7.478;2023-04-29T07:54:17;101214.00;;;11.30
12854;BMP180;6495;51.808;7.478;2023-04-29T07:56:45;101224.00;;;11.40
12854;BMP180;6495;51.808;7.478;2023-04-29T07:59:14;101232.00;;;11.40
12854;BMP180;6495;51.808;7.478;2023-04-29T08:01:42;101238.00;;;11.40
12854;BMP180;6495;51.808;7.478;2023-04-29T08:04:10;101238.00;;;11.50
12854;BMP180;6495;51.808;7.478;2023-04-29T08:06:47;101244.00;;;11.40
12854;BMP180;6495;51.808;7.478;2023-04-29T08:09:17;101246.00;;;11.40
12854;BMP180;6495;51.808;7.478;2023-04-29T08:11:45;101250.00;;;11.50
12854;BMP180;6495;51.808;7.478;2023-04-29T08:14:13;101263.00;;;11.50
12854;BMP180;6495;51.808;7.478;2023-04-29T08:16:42;101262.00;;;11.50
12854;BMP180;6495;51.808;7.478;2023-04-29T08:19:10;101263.00;;;11.50
12854;BMP180;6495;51.808;7.478;2023-04-29T08:21:38;101265.00;;;11.60
12854;BMP180;6495;51.808;7.478;2023-04-29T08:24:07;101271.00;;;11.60
12854;BMP180;6495;51.808;7.478;2023-04-29T08:26:38;101273.00;;;11.60
12854;BMP180;6495;51.808;7.478;2023-04-29T08:29:06;101278.00;;;11.60
12854;BMP180;6495;51.808;7.478;2023-04-29T08:31:35;101268.00;;;11.60
12854;BMP180;6495;51.808;7.478;2023-04-29T08:34:03;101280.00;;;11.60
12854;BMP180;6495;51.808;7.478;2023-04-29T08:36:31;101269.00;;;11.60
12854;BMP180;6495;51.808;7.478;2023-04-29T08:38:59;101275.00;;;11.70
12854;BMP180;6495;51.808;7.478;2023-04-29T08:41:30;101278.00;;;11.70
12854;BMP180;6495;51.808;7.478;2023-04-29T08:44:00;101272.00;;;11.70
12854;BMP180;6495;51.808;7.478;2023-04-29T08:46:28;101287.00;;;11.70
12854;BMP180;6495;51.808;7.478;2023-04-29T08:48:58;101290.00;;;11.70
12854;BMP180;6495;51.808;7.478;2023-04-29T08:51:28;101286.00;;;11.80
12854;BMP180;6495;51.808;7.478;2023-04-29T08:53:58;101281.00;;;11.90
12854;BMP180;6495;51.808;7.478;2023-04-29T08:56:27;101291.00;;;11.90
12854;BMP180;6495;51.808;7.478;2023-04-29T08:58:59;101294.00;;;11.90
12854;BMP180;6495;51.808;7.478;2023-04-29T09:01:29;101293.00;;;12.00
12854;BMP180;6495;51.808;7.478;2023-04-29T09:04:08;101296.00;;;12.00
12854;BMP180;6495;51.808;7.478;2023-04-29T09:06:37;101304.00;;;12.00
12854;BMP180;6495;51.808;7.478;2023-04-29T09:09:06;101300.00;;;12.00
12854;BMP180;6495;51.808;7.478;2023-04-29T09:11:36;101303.00;;;12.00
12854;BMP180;6495;51.808;7.478;2023-04-29T09:14:05;101306.00;;;12.10
12854;BMP180;6495;51.808;7.478;2023-04-29T09:16:35;101312.00;;;12.10
12854;BMP180;6495;51.808;7.478;2023-04-29T09:19:04;101315.00;;;12.10
12854;BMP180;6495;51.808;7.478;2023-04-29T09:21:33;101316.00;;;12.10
12854;BMP180;6495;51.808;7.478;2023-04-29T09:24:03;101312.00;;;12.20
12854;BMP180;6495;51.808;7.478;2023-04-29T09:26:41;101323.00;;;12.20
12854;BMP180;6495;51.808;7.478;2023-04-29T09:29:12;101327.00;;;12.20
12854;BMP180;6495;51.808;7.478;2023-04-29T09:31:42;101326.00;;;12.30
12854;BMP180;6495;51.808;7.478;2023-04-29T09:34:11;101337.00;;;12.30
12854;BMP180;6495;51.808;7.478;2023-04-29T09:36:51;101330.00;;;12.30
12854;BMP180;6495;51.808;7.478;2023-04-29T09:39:26;101337.00;;;12.40
12854;BMP180;6495;51.808;7.478;2023-04-29T09:42:04;101334.00;;;12.40
12854;BMP180;6495;51.808;7.478;2023-04-29T09:44:41;101343.00;;;12.50
12854;BMP180;6495;51.808;7.478;2023-04-29T09:47:10;101341.00;;;12.50
12854;BMP180;6495;51.808;7.478;2023-04-29T09:49:40;101340.00;;;12.60
12854;BMP180;6495;51.808;7.478;2023-04-29T09:52:13;101347.00;;;12.60
12854;BMP180;6495;51.808;7.478;2023-04-29T09:54:45;101349.00;;;12.70
12854;BMP180;6495;51.808;7.478;2023-04-29T09:57:15;101349.00;;;12.70
12854;BMP180;6495;51.808;7.478;2023-04-29T09:59:46;101358.00;;;12.80
12854;BMP180;6495;51.808;7.478;2023-04-29T10:02:16;101352.00;;;12.80
12854;BMP180;6495;51.808;7.478;2023-04-29T10:04:50;101359.00;;;12.90
12854;BMP180;6495;51.808;7.478;2023-04-29T10:07:21;101362.00;;;12.90
12854;BMP180;6495;51.808;7.478;2023-04-29T10:09:50;101357.00;;;12.90
12854;BMP180;6495;51.808;7.478;2023-04-29T10:12:19;101365.00;;;13.00
12854;BMP180;6495;51.808;7.478;2023-04-29T10:15:01;101364.00;;;13.00
12854;BMP180;6495;51.808;7.478;2023-04-29T10:17:42;101357.00;;;13.00
12854;BMP180;6495;51.808;7.478;2023-04-29T10:20:14;101363.00;;;13.00
12854;BMP180;6495;51.808;7.478;2023-04-29T10:22:46;101361.00;;;13.20
12854;BMP180;6495;51.808;7.478;2023-04-29T10:25:16;101363.00;;;13.30
12854;BMP180;6495;51.808;7.478;2023-04-29T10:27:47;101368.00;;;13.40
12854;BMP180;6495;51.808;7.478;2023-04-29T10:30:20;101365.00;;;13.50
12854;BMP180;6495;51.808;7.478;2023-04-29T10:32:50;101363.00;;;13.50
12854;BMP180;6495;51.808;7.478;2023-04-29T10:35:21;101369.00;;;13.60
12854;BMP180;6495;51.808;7.478;2023-04-29T10:37:54;101373.00;;;13.70
12854;BMP180;6495;51.808;7.478;2023-04-29T10:40:30;101375.00;;;13.70
12854;BMP180;6495;51.808;7.478;2023-04-29T10:43:03;101370.00;;;13.80
12854;BMP180;6495;51.808;7.478;2023-04-29T10:45:33;101381.00;;;13.90
12854;BMP180;6495;51.808;7.478;2023-04-29T10:48:13;101381.00;;;14.00
12854;BMP180;6495;51.808;7.478;2023-04-29T10:51:00;101377.00;;;14.10
12854;BMP180;6495;51.808;7.478;2023-04-29T10:53:29;101376.00;;;14.20
12854;BMP180;6495;51.808;7.478;2023-04-29T10:56:04;101378.00;;;14.30
12854;BMP180;6495;51.808;7.478;2023-04-29T10:58:40;101377.00;;;14.30
12854;BMP180;6495;51.808;7.478;2023-04-29T11:01:12;101377.00;;;14.30
12854;BMP180;6495;51.808;7.478;2023-04-29T11:03:52;101376.00;;;14.30
12854;BMP180;6495;51.808;7.478;2023-04-29T11:06:39;101386.00;;;14.40
12854;BMP180;6495;51.808;7.478;2023-04-29T11:09:18;101383.00;;;14.40
12854;BMP180;6495;51.808;7.478;2023-04-29T11:12:02;101385.00;;;14.50
12854;BMP180;6495;51.808;7.478;2023-04-29T11:14:36;101385.00;;;14.50
12854;BMP180;6495;51.808;7.478;2023-04-29T11:17:08;101380.00;;;14.60
12854;BMP180;6495;51.808;7.478;2023-04-29T11:19:46;101389.00;;;14.70
12854;BMP180;6495;51.808;7.478;2023-04-29T11:22:26;101378.00;;;14.80
12854;BMP180;6495;51.808;7.478;2023-04-29T11:25:24;101390.00;;;14.90
12854;BMP180;6495;51.808;7.478;2023-04-29T11:28:15;101388.00;;;15.00
12854;BMP180;6495;51.808;7.478;2023-04-29T11:30:45;101385.00;;;15.00
12854;BMP180;6495;51.808;7.478;2023-04-29T11:33:15;101396.00;;;15.10
12854;BMP180;6495;51.808;7.478;2023-04-29T11:35:44;101391.00;;;15.20
12854;BMP180;6495;51.808;7.478;2023-04-29T11:38:13;101388.00;;;15.20
12854;BMP180;6495;51.808;7.478;2023-04-29T11:40:47;101391.00;;;15.30
12854;BMP180;6495;51.808;7.478;2023-04-29T11:43:26;101393.00;;;15.30
12854;BMP180;6495;51.808;7.478;2023-04-29T11:45:55;101399.00;;;15.30
12854;BMP180;6495;51.808;7.478;2023-04-29T11:48:26;101406.00;;;15.30
12854;BMP180;6495;51.808;7.478;2023-04-29T11:50:58;101410.00;;;15.30
12854;BMP180;6495;51.808;7.478;2023-04-29T11:53:27;101406.00;;;15.30
12854;BMP180;6495;51.808;7.478;2023-04-29T11:55:56;101412.00;;;15.30
12854;BMP180;6495;51.808;7.478;2023-04-29T11:58:24;101404.00;;;15.30
12854;BMP180;6495;51.808;7.478;2023-04-29T12:00:53;101401.00;;;15.30
12854;BMP180;6495;51.808;7.478;2023-04-29T12:03:21;101404.00;;;15.20
12854;BMP180;6495;51.808;7.478;2023-04-29T12:05:53;101401.00;;;15.20
12854;BMP180;6495;51.808;7.478;2023-04-29T12:08:23;101401.00;;;15.20
12854;BMP180;6495;51.808;7.478;2023-04-29T12:10:53;101399.00;;;15.30
12854;BMP180;6495;51.808;7.478;2023-04-29T12:13:23;101401.00;;;15.20
12854;BMP180;6495;51.808;7.478;2023-04-29T12:15:52;101396.00;;;15.20
12854;BMP180;6495;51.808;7.478;2023-04-29T12:18:24;101404.00;;;15.30
12854;BMP180;6495;51.808;7.478;2023-04-29T12:20:55;101404.00;;;15.30
12854;BMP180;6495;51.808;7.478;2023-04-29T12:23:25;101407.00;;;15.30
12854;BMP180;6495;51.808;7.478;2023-04-29T12:26:00;101405.00;;;15.40
12854;BMP180;6495;51.808;7.478;2023-04-29T12:28:56;101412.00;;;15.40
12854;BMP180;6495;51.808;7.478;2023-04-29T12:31:37;101404.00;;;15.30
12854;BMP180;6495;51.808;7.478;2023-04-29T12:34:08;101410.00;;;15.30
12854;BMP180;6495;51.808;7.478;2023-04-29T12:36:43;101415.00;;;15.40
12854;BMP180;6495;51.808;7.478;2023-04-29T12:39:17;101411.00;;;15.40
12854;BMP180;6495;51.808;7.478;2023-04-29T12:42:30;101416.00;;;15.40
12854;BMP180;6495;51.808;7.478;2023-04-29T12:44:59;101419.00;;;15.40
12854;BMP180;6495;51.808;7.478;2023-04-29T12:47:56;101414.00;;;15.40
12854;BMP180;6495;51.808;7.478;2023-04-29T12:51:36;101422.00;;;15.40
12854;BMP180;6495;51.808;7.478;2023-04-29T13:01:54;101432.00;;;15.50
12854;BMP180;6495;51.808;7.478;2023-04-29T13:08:46;101428.00;;;15.60
12854;BMP180;6495;51.808;7.478;2023-04-29T13:17:20;101437.00;;;15.50
12854;BMP180;6495;51.808;7.478;2023-04-29T13:19:49;101426.00;;;15.60
12854;BMP180;6495;51.808;7.478;2023-04-29T13:22:18;101426.00;;;15.60
12854;BMP180;6495;51.808;7.478;2023-04-29T13:24:47;101426.00;;;15.70
12854;BMP180;6495;51.808;7.478;2023-04-29T13:27:16;101422.00;;;15.70
12854;BMP180;6495;51.808;7.478;2023-04-29T13:29:44;101418.00;;;15.80
12854;BMP180;6495;51.808;7.478;2023-04-29T13:32:12;101422.00;;;15.90
12854;BMP180;6495;51.808;7.478;2023-04-29T13:34:45;101415.00;;;15.90
12854;BMP180;6495;51.808;7.478;2023-04-29T13:37:13;101416.00;;;16.00
12854;BMP180;6495;51.808;7.478;2023-04-29T13:39:43;101414.00;;;16.00
12854;BMP180;6495;51.808;7.478;2023-04-29T13:42:17;101428.00;;;16.10
12854;BMP180;6495;51.808;7.478;2023-04-29T13:44:46;101428.00;;;16.00
12854;BMP180;6495;51.808;7.478;2023-04-29T13:47:19;101434.00;;;16.00
12854;BMP180;6495;51.808;7.478;2023-04-29T13:49:56;101429.00;;;16.00
12854;BMP180;6495;51.808;7.478;2023-04-29T13:52:51;101430.00;;;16.00
12854;BMP180;6495;51.808;7.478;2023-04-29T13:55:40;101428.00;;;16.10
12854;BMP180;6495;51.808;7.478;2023-04-29T13:58:28;101431.00;;;16.10
12854;BMP180;6495;51.808;7.478;2023-04-29T14:01:17;101436.00;;;16.10
12854;BMP180;6495;51.808;7.478;2023-04-29T14:04:09;101440.00;;;16.10
12854;BMP180;6495;51.808;7.478;2023-04-29T14:06:39;101439.00;;;16.10
12854;BMP180;6495;51.808;7.478;2023-04-29T14:09:09;101442.00;;;16.00
12854;BMP180;6495;51.808;7.478;2023-04-29T14:11:38;101434.00;;;16.00
12854;BMP180;6495;51.808;7.478;2023-04-29T14:14:06;101445.00;;;16.10
12854;BMP180;6495;51.808;7.478;2023-04-29T14:16:36;101450.00;;;16.10
12854;BMP180;6495;51.808;7.478;2023-04-29T14:19:04;101449.00;;;16.10
12854;BMP180;6495;51.808;7.478;2023-04-29T14:21:33;101443.00;;;16.10
12854;BMP180;6495;51.808;7.478;2023-04-29T14:24:03;101451.00;;;16.30
12854;BMP180;6495;51.808;7.478;2023-04-29T14:26:31;101447.00;;;16.40
12854;BMP180;6495;51.808;7.478;2023-04-29T14:28:59;101455.00;;;16.60
12854;BMP180;6495;51.808;7.478;2023-04-29T14:31:34;101441.00;;;16.80
12854;BMP180;6495;51.808;7.478;2023-04-29T14:34:06;101443.00;;;16.90
12854;BMP180;6495;51.808;7.478;2023-04-29T14:36:35;101455.00;;;16.90
12854;BMP180;6495;51.808;7.478;2023-04-29T14:39:06;101447.00;;;17.10
12854;BMP180;6495;51.808;7.478;2023-04-29T14:41:38;101463.00;;;17.10
12854;BMP180;6495;51.808;7.478;2023-04-29T14:44:12;101459.00;;;17.20
12854;BMP180;6495;51.808;7.478;2023-04-29T14:46:41;101469.00;;;17.20
12854;BMP180;6495;51.808;7.478;2023-04-29T14:49:10;101459.00;;;17.20
12854;BMP180;6495;51.808;7.478;2023-04-29T14:56:39;101471.00;;;17.50
12854;BMP180;6495;51.808;7.478;2023-04-29T14:59:15;101465.00;;;17.50
12854;BMP180;6495;51.808;7.478;2023-04-29T15:01:44;101476.00;;;17.50